Time;durP1;ratioP1;P1;durP2;ratioP2;P2;SDS_P1;SDS_P2;PMS_P1;PMS_P2;Temp;Humidity;BMP_temperature;BMP_pressure;BME280_temperature;BME280_humidity;BME280_pressure;Samples;Min_cycle;Max_cycle;Signal;HPM_P1;HPM_P2
2021/12/02 00:01:04;;;;;;;7.35;1.45;;;;;;;4.15;82.20;100038.72;5031299;28;20036;-74
2021/12/02 00:03:30;;;;;;;10.75;1.98;;;;;;;4.10;82.92;100043.47;5031079;28;20026;-69
2021/12/02 00:05:56;;;;;;;9.38;1.65;;;;;;;4.04;83.21;100043.94;5032436;28;20026;-70
2021/12/02 00:08:21;;;;;;;13.32;1.92;;;;;;;3.94;83.82;100051.72;5035033;28;20466;-69
2021/12/02 00:10:47;;;;;;;11.20;1.40;;;;;;;3.83;83.64;100047.25;5035704;28;20473;-69
2021/12/02 00:13:13;;;;;;;6.45;1.17;;;;;;;3.73;82.07;100043.63;5017464;28;20462;-69
2021/12/02 00:15:46;;;;;;;7.47;1.45;;;;;;;3.71;82.73;100053.44;5035321;28;20397;-69
2021/12/02 00:23:29;;;;;;;8.95;1.65;;;;;;;3.58;82.31;100042.13;5035264;28;20459;-70
2021/12/02 00:26:00;;;;;;;6.13;1.35;;;;;;;3.56;82.92;100044.06;5035009;28;20183;-69
2021/12/02 00:28:28;;;;;;;15.23;1.77;;;;;;;3.61;83.24;100050.63;5034647;28;20025;-69
2021/12/02 00:30:55;;;;;;;7.35;1.13;;;;;;;3.66;83.12;100055.56;5035222;28;20060;-69
2021/12/02 00:33:24;;;;;;;12.02;1.40;;;;;;;3.81;82.73;100061.50;5034703;28;20164;-70
2021/12/02 00:35:50;;;;;;;14.77;1.55;;;;;;;3.83;82.40;100054.31;5035352;28;20471;-69
2021/12/02 00:38:18;;;;;;;9.50;1.60;;;;;;;3.81;82.34;100043.91;5034980;28;20067;-70
2021/12/02 00:40:44;;;;;;;11.45;2.33;;;;;;;3.77;82.81;100044.25;5035280;28;20037;-69
2021/12/02 00:43:10;;;;;;;15.52;1.70;;;;;;;3.81;81.47;100043.06;5017093;28;20394;-74
2021/12/02 00:45:39;;;;;;;9.20;1.88;;;;;;;3.81;81.53;100041.25;5034543;28;20030;-68
2021/12/02 00:48:07;;;;;;;14.07;1.45;;;;;;;3.84;81.03;100048.09;5034919;28;20026;-69
2021/12/02 00:50:32;;;;;;;13.10;1.67;;;;;;;3.85;80.96;100042.72;5034535;28;20029;-69
2021/12/02 00:53:00;;;;;;;12.80;2.17;;;;;;;3.86;81.16;100065.44;5034565;28;20041;-69
2021/12/02 00:55:26;;;;;;;7.53;1.50;;;;;;;3.91;81.32;100069.53;5034213;28;20079;-69
2021/12/02 00:57:52;;;;;;;10.15;1.50;;;;;;;3.87;81.89;100075.00;5034926;28;20034;-69
2021/12/02 01:00:18;;;;;;;11.52;1.70;;;;;;;3.80;82.00;100063.25;5033977;28;20034;-69
2021/12/02 01:02:44;;;;;;;10.05;1.35;;;;;;;3.70;83.18;100065.75;5034416;28;20430;-69
2021/12/02 01:05:10;;;;;;;14.02;1.83;;;;;;;3.60;84.00;100062.13;5034505;28;20147;-69
2021/12/02 01:07:36;;;;;;;5.18;1.00;;;;;;;3.51;84.09;100065.44;5016392;28;20026;-69
2021/12/02 01:10:03;;;;;;;6.45;1.17;;;;;;;3.40;84.40;100063.56;5034399;28;20042;-69
2021/12/02 01:12:28;;;;;;;14.23;1.75;;;;;;;3.30;84.50;100058.16;5033645;28;20108;-69
2021/12/02 01:14:54;;;;;;;12.38;1.23;;;;;;;3.22;85.46;100057.03;5034148;28;20052;-70
2021/12/02 01:17:20;;;;;;;15.85;2.33;;;;;;;3.16;85.57;100053.03;5032638;28;20049;-70
2021/12/02 01:19:45;;;;;;;8.27;1.42;;;;;;;3.11;84.74;100056.00;5034175;28;20116;-69
2021/12/02 01:22:13;;;;;;;8.68;1.38;;;;;;;3.12;83.01;100060.31;5034501;28;20029;-69
2021/12/02 01:24:42;;;;;;;9.00;1.30;;;;;;;3.14;82.30;100053.16;5033567;28;20045;-69
2021/12/02 01:27:09;;;;;;;7.07;1.15;;;;;;;3.20;79.88;100056.31;5033985;28;20083;-69
2021/12/02 01:29:37;;;;;;;7.10;0.95;;;;;;;3.21;79.81;100047.44;5033372;28;20033;-70
2021/12/02 01:32:07;;;;;;;8.75;1.10;;;;;;;3.22;78.69;100044.72;5034471;28;20044;-69
2021/12/02 01:34:33;;;;;;;9.05;1.20;;;;;;;3.23;78.93;100046.41;5033590;28;20029;-69
2021/12/02 01:37:01;;;;;;;3.35;0.88;;;;;;;3.29;79.47;100055.63;5034492;28;20124;-69
2021/12/02 01:39:28;;;;;;;11.32;1.60;;;;;;;3.48;78.97;100055.16;5033241;28;20033;-69
2021/12/02 01:41:58;;;;;;;12.65;1.45;;;;;;;3.75;77.19;100054.03;5033807;28;20025;-69
2021/12/02 01:44:27;;;;;;;10.93;1.40;;;;;;;3.91;77.11;100051.09;5033041;28;20181;-69
2021/12/02 01:46:57;;;;;;;8.82;1.75;;;;;;;3.96;76.69;100055.06;5033911;28;20021;-69
2021/12/02 01:49:27;;;;;;;4.35;1.27;;;;;;;4.02;73.94;100056.41;5033334;28;20025;-69
2021/12/02 01:51:57;;;;;;;8.32;1.48;;;;;;;4.01;73.38;100059.97;5033735;28;20393;-69
2021/12/02 01:54:25;;;;;;;6.00;1.17;;;;;;;4.03;73.54;100060.69;5033195;28;20036;-71
2021/12/02 01:56:53;;;;;;;11.88;1.45;;;;;;;4.02;74.13;100064.28;5033477;28;20489;-69
2021/12/02 01:59:25;;;;;;;13.05;1.60;;;;;;;4.04;75.64;100073.75;5033389;28;20030;-69
2021/12/02 02:01:55;;;;;;;8.77;1.85;;;;;;;3.99;78.39;100075.06;5016136;28;20493;-68
2021/12/02 02:04:23;;;;;;;7.10;1.38;;;;;;;3.85;81.81;100083.97;5033401;28;20038;-74
2021/12/02 02:06:54;;;;;;;11.98;1.73;;;;;;;3.59;82.62;100085.91;5033227;28;20038;-68
2021/12/02 02:09:20;;;;;;;7.15;0.85;;;;;;;3.43;81.44;100099.34;5033075;28;20040;-70
2021/12/02 02:11:46;;;;;;;4.85;1.20;;;;;;;3.27;81.77;100091.69;5033140;28;20065;-69
2021/12/02 02:14:12;;;;;;;4.57;0.85;;;;;;;3.11;81.46;100092.81;5033749;28;20072;-69
2021/12/02 02:16:39;;;;;;;4.45;0.85;;;;;;;2.99;82.78;100098.94;5032944;28;20037;-70
2021/12/02 02:19:06;;;;;;;3.33;0.70;;;;;;;2.86;82.43;100090.25;5033459;28;20044;-69
2021/12/02 02:21:35;;;;;;;4.80;0.77;;;;;;;2.79;83.19;100093.31;5032742;28;20386;-70
2021/12/02 02:24:02;;;;;;;4.43;0.80;;;;;;;2.72;83.64;100089.41;5032905;28;20085;-70
2021/12/02 02:26:34;;;;;;;4.70;0.77;;;;;;;2.69;84.51;100092.25;5032669;28;20460;-70
2021/12/02 02:29:07;;;;;;;6.38;1.10;;;;;;;2.76;83.96;100096.16;5033820;28;20147;-78
2021/12/02 02:31:36;;;;;;;7.55;1.30;;;;;;;2.86;82.41;100096.31;5048437;22;20048;-69
2021/12/02 02:34:02;;;;;;;7.22;0.85;;;;;;;2.97;79.38;100087.69;5033304;28;20036;-70
2021/12/02 02:36:30;;;;;;;2.75;0.80;;;;;;;3.04;79.18;100090.72;5015411;28;20386;-70
2021/12/02 02:38:58;;;;;;;3.50;0.60;;;;;;;3.07;78.88;100070.31;5015970;28;20029;-70
2021/12/02 02:41:26;;;;;;;5.55;0.80;;;;;;;3.11;79.86;100086.72;5033355;28;20030;-69
2021/12/02 02:43:56;;;;;;;4.15;0.70;;;;;;;3.12;81.51;100093.63;5033614;28;20037;-70
2021/12/02 02:46:27;;;;;;;5.60;0.90;;;;;;;3.07;82.13;100098.41;5033148;28;20029;-69
2021/12/02 02:48:53;;;;;;;4.57;0.80;;;;;;;2.88;83.89;100089.19;5033206;28;20029;-69
2021/12/02 02:51:19;;;;;;;3.95;0.90;;;;;;;2.71;84.79;100092.16;5033067;28;20034;-70
2021/12/02 02:53:53;;;;;;;4.05;0.93;;;;;;;2.55;84.85;100106.31;5032782;28;20036;-70
2021/12/02 02:56:21;;;;;;;13.57;1.17;;;;;;;2.47;85.11;100100.78;5033165;28;20029;-72
2021/12/02 03:11:53;;;;;;;;;;;;;;;2.59;87.81;100133.25;5032978;28;20390;-69
2021/12/02 03:14:26;;;;;;;;;;;;;;;2.22;89.27;100115.56;5033134;28;19967;-70
2021/12/02 03:16:52;;;;;;;6.72;0.82;;;;;;;1.96;91.59;100112.06;5032474;28;19917;-68
2021/12/02 03:19:27;;;;;;;5.32;0.90;;;;;;;1.79;93.31;100097.41;5032892;28;20036;-69
2021/12/02 03:21:54;;;;;;;4.47;1.00;;;;;;;1.68;95.01;100092.03;5032230;28;20072;-70
2021/12/02 03:24:20;;;;;;;11.20;1.35;;;;;;;1.57;95.67;100085.72;5032881;28;20037;-70
2021/12/02 03:26:46;;;;;;;12.40;1.45;;;;;;;1.50;96.46;100100.16;5032044;28;20068;-69
2021/12/02 03:29:12;;;;;;;12.05;1.58;;;;;;;1.50;97.56;100100.16;5032687;28;20041;-70
2021/12/02 03:31:37;;;;;;;12.13;1.55;;;;;;;1.64;98.51;100109.75;5032157;28;20115;-69
2021/12/02 03:34:04;;;;;;;9.75;1.20;;;;;;;1.74;98.65;100104.75;5032666;28;20481;-70
2021/12/02 03:36:29;;;;;;;6.97;1.52;;;;;;;1.75;98.58;100095.97;5032651;28;20037;-69
2021/12/02 03:38:55;;;;;;;11.63;1.52;;;;;;;1.77;97.13;100079.16;5032075;28;20036;-69
2021/12/02 03:41:21;;;;;;;9.90;1.10;;;;;;;1.80;96.73;100088.63;5031761;28;20037;-70
2021/12/02 03:43:48;;;;;;;10.70;1.02;;;;;;;1.85;96.05;100098.81;5032533;28;20046;-69
2021/12/02 03:46:21;;;;;;;5.90;0.98;;;;;;;1.90;96.27;100089.69;5032523;28;20038;-69
2021/12/02 03:48:47;;;;;;;17.98;2.08;;;;;;;1.88;96.79;100088.09;5032025;28;20033;-70
2021/12/02 03:51:13;;;;;;;11.60;1.38;;;;;;;1.86;97.36;100097.88;5032490;28;20113;-69
2021/12/02 03:53:39;;;;;;;12.50;1.35;;;;;;;1.97;97.34;100098.00;5031887;28;20116;-69
2021/12/02 03:56:06;;;;;;;17.75;1.80;;;;;;;2.17;96.73;100096.66;5032086;28;20129;-70
2021/12/02 03:58:33;;;;;;;15.85;1.40;;;;;;;2.23;97.09;100098.88;5032425;28;20121;-69
2021/12/02 04:00:58;;;;;;;14.63;2.00;;;;;;;2.20;96.42;100099.06;5031938;28;20056;-70
2021/12/02 04:03:24;;;;;;;15.77;1.30;;;;;;;2.20;95.88;100106.13;5032122;28;20489;-70
2021/12/02 04:05:49;;;;;;;8.07;1.25;;;;;;;2.18;94.88;100102.75;5031684;28;20038;-70
2021/12/02 04:08:15;;;;;;;7.13;1.00;;;;;;;2.35;92.59;100115.56;5032186;28;20061;-69
2021/12/02 04:10:42;;;;;;;10.90;1.70;;;;;;;2.27;93.52;100138.91;5031567;28;20025;-70
2021/12/02 04:13:20;;;;;;;4.50;0.88;;;;;;;2.05;94.18;100145.56;5032414;28;20055;-69
2021/12/02 04:15:50;;;;;;;2.65;0.40;;;;;;;1.76;94.28;100148.31;5031755;28;20057;-70
2021/12/02 04:18:16;;;;;;;1.30;0.50;;;;;;;1.54;95.65;100127.88;5032657;28;20438;-70
2021/12/02 04:20:42;;;;;;;4.82;0.60;;;;;;;1.38;96.27;100120.13;5031618;28;20038;-70
2021/12/02 04:23:07;;;;;;;3.00;0.85;;;;;;;1.24;96.60;100117.56;5031873;28;20559;-70
2021/12/02 04:25:32;;;;;;;4.88;0.70;;;;;;;1.10;97.09;100113.16;5031830;28;20060;-70
2021/12/02 04:27:58;;;;;;;2.78;0.70;;;;;;;0.96;97.39;100107.97;5031542;28;20227;-70
2021/12/02 04:30:26;;;;;;;6.80;0.88;;;;;;;0.85;98.05;100113.84;5031975;28;20056;-70
2021/12/02 04:32:53;;;;;;;5.30;0.60;;;;;;;0.75;98.72;100110.97;5031403;28;20052;-70
2021/12/02 04:35:19;;;;;;;6.10;0.70;;;;;;;0.69;99.07;100103.50;5031783;28;20033;-70
2021/12/02 04:37:46;;;;;;;3.22;0.73;;;;;;;0.63;99.39;100099.47;5031209;28;20029;-70
2021/12/02 04:40:16;;;;;;;1.30;0.50;;;;;;;0.56;99.52;100103.38;5031628;28;20033;-70
2021/12/02 04:42:42;;;;;;;4.38;0.65;;;;;;;0.54;99.39;100102.66;5031724;28;20040;-73
2021/12/02 04:45:08;;;;;;;5.25;1.00;;;;;;;0.55;99.22;100100.88;5031828;28;20033;-69
2021/12/02 04:47:34;;;;;;;6.80;1.10;;;;;;;0.58;99.29;100100.69;5031604;28;20151;-70
2021/12/02 04:49:59;;;;;;;5.47;0.82;;;;;;;0.64;99.93;100109.00;5031256;28;20072;-70
2021/12/02 04:52:24;;;;;;;4.78;1.00;;;;;;;0.73;99.82;100097.13;5033252;28;20057;-70
2021/12/02 04:54:50;;;;;;;5.88;1.38;;;;;;;0.84;99.65;100101.72;5035415;28;20144;-70
2021/12/02 04:57:15;;;;;;;7.82;1.10;;;;;;;0.90;99.36;100101.34;5035396;28;20451;-70
2021/12/02 04:59:41;;;;;;;10.07;1.60;;;;;;;0.99;98.71;100090.28;5035103;28;20103;-70
2021/12/02 05:02:06;;;;;;;10.75;1.50;;;;;;;1.11;97.67;100104.38;5034522;28;20068;-70
2021/12/02 05:04:31;;;;;;;16.50;1.73;;;;;;;1.25;96.07;100100.88;5034988;28;20116;-69
2021/12/02 05:06:57;;;;;;;7.50;1.60;;;;;;;1.48;93.17;100102.06;5034439;28;20335;-70
2021/12/02 05:09:22;;;;;;;12.80;1.67;;;;;;;1.62;93.38;100098.53;5034854;28;20120;-70
2021/12/02 05:11:47;;;;;;;13.43;2.47;;;;;;;1.72;93.54;100106.66;5034569;28;20418;-70
2021/12/02 05:14:13;;;;;;;6.95;1.52;;;;;;;1.86;92.45;100101.31;5034972;28;20052;-70
2021/12/02 05:16:39;;;;;;;14.93;2.38;;;;;;;1.90;92.27;100099.34;5034731;28;20120;-69
2021/12/02 05:19:05;;;;;;;9.57;1.77;;;;;;;2.02;91.16;100108.19;5033950;28;20356;-70
2021/12/02 05:21:30;;;;;;;16.55;1.63;;;;;;;2.09;90.70;100109.44;5034880;28;20453;-70
2021/12/02 05:23:56;;;;;;;6.57;1.20;;;;;;;2.29;89.71;100113.38;5033892;28;20029;-70
2021/12/02 05:26:23;;;;;;;12.45;2.30;;;;;;;2.55;88.48;100106.31;5034698;28;20091;-70
2021/12/02 05:28:50;;;;;;;7.72;1.40;;;;;;;2.62;87.65;100112.84;5016844;28;20098;-70
2021/12/02 05:31:16;;;;;;;21.10;3.45;;;;;;;2.63;88.10;100106.66;5034657;28;20053;-70
2021/12/02 05:33:42;;;;;;;15.13;1.90;;;;;;;2.66;86.21;100116.13;5016869;28;20362;-70
2021/12/02 05:36:08;;;;;;;5.80;1.65;;;;;;;2.77;83.11;100152.97;5034131;28;20033;-69
2021/12/02 05:38:34;;;;;;;7.15;1.30;;;;;;;2.55;82.77;100140.47;5034654;28;20037;-70
2021/12/02 05:41:00;;;;;;;6.53;1.05;;;;;;;2.21;81.69;100123.53;5034217;28;20040;-69
2021/12/02 05:43:25;;;;;;;7.38;1.25;;;;;;;1.96;84.78;100109.44;5034592;28;20029;-70
2021/12/02 05:45:50;;;;;;;9.50;1.25;;;;;;;1.81;86.59;100113.06;5033922;28;20036;-71
2021/12/02 05:48:16;;;;;;;6.63;1.23;;;;;;;1.82;86.15;100126.09;5034332;28;20120;-69
2021/12/02 05:50:41;;;;;;;13.48;2.03;;;;;;;1.95;89.23;100126.13;5034230;28;20029;-71
2021/12/02 05:53:07;;;;;;;17.33;2.17;;;;;;;2.03;90.37;100147.47;5033505;28;20032;-70
2021/12/02 05:55:35;;;;;;;8.48;1.38;;;;;;;2.04;90.28;100151.75;5033959;28;20385;-70
2021/12/02 05:58:00;;;;;;;10.25;1.63;;;;;;;2.00;90.83;100157.28;5033185;28;20029;-70
2021/12/02 06:00:26;;;;;;;15.52;2.22;;;;;;;1.91;91.91;100156.97;5034144;28;20132;-70
2021/12/02 06:02:52;;;;;;;19.15;2.60;;;;;;;1.87;92.05;100155.47;5033818;28;20029;-70
2021/12/02 06:05:20;;;;;;;12.50;1.95;;;;;;;1.86;91.33;100166.91;5033629;28;20592;-70
2021/12/02 06:07:49;;;;;;;15.70;2.03;;;;;;;1.86;89.86;100182.66;5026079;28;20030;-71
2021/12/02 06:10:14;;;;;;;7.43;1.27;;;;;;;1.86;87.89;100197.56;4996189;28;20041;-71
2021/12/02 06:12:40;;;;;;;6.50;1.25;;;;;;;1.74;87.26;100201.81;5014181;28;20030;-71
2021/12/02 06:15:06;;;;;;;2.92;0.98;;;;;;;1.59;86.54;100195.75;4996532;28;20410;-70
2021/12/02 06:17:33;;;;;;;6.68;0.80;;;;;;;1.41;87.50;100187.28;4996563;28;20034;-71
2021/12/02 06:19:58;;;;;;;7.00;0.95;;;;;;;1.25;88.13;100183.91;4996483;28;20062;-70
2021/12/02 06:22:23;;;;;;;4.35;0.82;;;;;;;1.11;88.19;100177.75;5014022;28;20509;-71
2021/12/02 06:25:06;;;;;;;7.20;0.93;;;;;;;1.07;88.17;100178.03;5013876;28;20390;-70
2021/12/02 06:27:31;;;;;;;4.85;0.90;;;;;;;1.04;88.21;100179.06;5013868;28;20034;-71
2021/12/02 06:29:57;;;;;;;6.05;1.92;;;;;;;1.04;89.91;100177.28;5013398;28;20033;-70
2021/12/02 06:32:22;;;;;;;10.68;1.92;;;;;;;1.05;89.65;100162.41;5013513;28;20074;-69
2021/12/02 06:34:47;;;;;;;5.75;1.02;;;;;;;1.09;89.59;100163.91;5013531;28;20046;-70
2021/12/02 06:37:13;;;;;;;9.60;1.05;;;;;;;1.18;87.89;100162.47;5013089;28;20121;-70
2021/12/02 06:39:38;;;;;;;3.20;0.98;;;;;;;1.20;88.12;100161.44;5013418;28;20049;-70
2021/12/02 06:42:03;;;;;;;4.53;1.10;;;;;;;1.23;88.20;100165.69;5013372;28;20045;-71
2021/12/02 06:44:29;;;;;;;3.10;1.02;;;;;;;1.32;87.14;100167.72;5013529;28;20065;-71
2021/12/02 06:46:56;;;;;;;6.45;1.20;;;;;;;1.51;85.90;100170.03;5013370;28;20038;-70
2021/12/02 06:49:21;;;;;;;12.50;1.35;;;;;;;1.61;85.96;100169.44;5013172;28;20079;-71
2021/12/02 06:51:47;;;;;;;12.52;1.58;;;;;;;1.65;86.98;100181.41;5013191;28;20026;-71
2021/12/02 06:54:12;;;;;;;6.13;1.13;;;;;;;1.73;87.16;100189.63;5013077;28;20041;-72
2021/12/02 06:56:37;;;;;;;6.30;1.20;;;;;;;1.87;86.82;100192.22;5013624;28;20436;-72
2021/12/02 06:59:03;;;;;;;7.22;2.05;;;;;;;1.81;87.10;100186.50;5012890;28;20030;-71
2021/12/02 07:01:28;;;;;;;8.27;1.27;;;;;;;1.66;88.30;100181.31;5013381;28;20040;-71
2021/12/02 07:03:54;;;;;;;6.50;1.50;;;;;;;1.47;89.32;100178.19;5013125;28;20040;-71
2021/12/02 07:06:19;;;;;;;8.60;1.73;;;;;;;1.30;90.41;100187.94;5012498;28;20034;-71
2021/12/02 07:08:44;;;;;;;6.40;1.20;;;;;;;1.20;91.70;100197.31;5013304;28;20057;-70
2021/12/02 07:11:10;;;;;;;10.73;1.52;;;;;;;1.17;92.33;100194.88;5012529;28;20058;-70
2021/12/02 07:13:37;;;;;;;10.23;1.38;;;;;;;1.11;92.28;100190.84;5013017;28;20026;-70
2021/12/02 07:16:03;;;;;;;7.57;2.13;;;;;;;1.14;91.45;100192.47;5011700;28;20112;-70
2021/12/02 07:18:29;;;;;;;10.43;1.77;;;;;;;1.15;91.46;100188.88;4995282;28;20478;-70
2021/12/02 07:20:54;;;;;;;11.20;1.48;;;;;;;1.16;90.99;100201.06;4995205;28;20076;-72
2021/12/02 07:23:21;;;;;;;5.22;1.13;;;;;;;1.23;89.02;100191.88;5012613;28;20034;-71
2021/12/02 07:25:48;;;;;;;12.00;2.17;;;;;;;1.45;88.03;100199.25;5013101;28;20034;-69
2021/12/02 07:28:15;;;;;;;13.48;1.70;;;;;;;1.61;88.62;100214.84;5012414;28;20030;-71
2021/12/02 07:30:41;;;;;;;5.75;1.30;;;;;;;1.79;88.78;100209.38;5012670;28;20529;-71
2021/12/02 07:33:10;;;;;;;13.45;2.25;;;;;;;1.86;90.68;100221.16;5012341;28;20034;-71
2021/12/02 07:35:36;;;;;;;10.43;1.63;;;;;;;1.82;90.94;100232.78;5012625;28;20034;-70
2021/12/02 07:38:03;;;;;;;16.20;1.45;;;;;;;1.74;90.04;100234.13;5012891;28;20038;-70
2021/12/02 07:40:33;;;;;;;7.13;1.17;;;;;;;1.66;88.46;100239.03;5012450;28;20037;-71
2021/12/02 07:42:59;;;;;;;6.30;1.23;;;;;;;1.60;88.27;100228.91;5012601;28;20474;-70
2021/12/02 07:45:28;;;;;;;7.30;1.02;;;;;;;1.54;88.71;100232.75;5012345;28;20117;-71
2021/12/02 07:47:54;;;;;;;5.15;0.98;;;;;;;1.54;88.88;100237.19;5012352;28;20029;-71
2021/12/02 07:50:20;;;;;;;3.60;0.85;;;;;;;1.54;87.65;100234.56;5011958;28;20033;-71
2021/12/02 07:52:55;;;;;;;4.15;1.00;;;;;;;1.49;87.80;100232.19;5012512;28;20038;-71
2021/12/02 07:55:22;;;;;;;7.65;1.67;;;;;;;1.42;88.23;100233.53;5012174;28;20076;-69
2021/12/02 07:57:49;;;;;;;6.88;0.90;;;;;;;1.34;87.71;100239.22;4995160;28;20160;-71
2021/12/02 08:00:21;;;;;;;10.55;1.23;;;;;;;1.25;88.16;100247.66;5012150;28;20033;-71
2021/12/02 08:02:49;;;;;;;4.63;0.82;;;;;;;1.20;88.71;100244.50;5012347;28;20038;-71
2021/12/02 08:05:16;;;;;;;3.65;0.82;;;;;;;1.19;89.08;100255.91;5012181;28;20026;-69
2021/12/02 08:07:44;;;;;;;8.88;1.13;;;;;;;1.17;89.42;100266.47;5012415;28;20091;-69
2021/12/02 08:10:11;;;;;;;5.95;0.90;;;;;;;1.20;89.35;100263.66;5011863;28;20042;-70
2021/12/02 08:12:38;;;;;;;12.02;1.40;;;;;;;1.22;89.45;100268.81;5012552;28;20395;-70
2021/12/02 08:15:06;;;;;;;4.38;1.13;;;;;;;1.23;89.67;100273.13;5012404;28;20474;-71
2021/12/02 08:17:31;;;;;;;7.65;1.45;;;;;;;1.22;89.16;100280.16;5011361;28;20402;-70
2021/12/02 08:19:56;;;;;;;7.30;2.28;;;;;;;1.21;89.27;100282.88;5012485;28;20034;-70
2021/12/02 08:22:22;;;;;;;10.27;1.30;;;;;;;1.21;89.13;100285.50;5011754;28;20471;-71
2021/12/02 08:24:47;;;;;;;5.60;1.10;;;;;;;1.22;89.42;100300.25;5012429;28;20041;-71
2021/12/02 08:27:13;;;;;;;9.27;1.90;;;;;;;1.23;89.22;100307.19;5012668;28;20033;-71
2021/12/02 08:29:38;;;;;;;5.65;1.15;;;;;;;1.31;88.95;100304.13;5016012;28;20490;-71
2021/12/02 08:32:04;;;;;;;9.30;1.35;;;;;;;1.45;88.65;100313.75;5016069;28;20471;-71
2021/12/02 08:34:29;;;;;;;3.88;0.70;;;;;;;1.61;87.29;100311.88;5015696;28;20121;-71
2021/12/02 08:36:56;;;;;;;3.25;1.08;;;;;;;1.92;85.99;100320.47;5016080;28;20466;-71
2021/12/02 08:39:24;;;;;;;3.85;0.95;;;;;;;2.18;86.10;100318.84;4998180;28;20040;-70
2021/12/02 08:41:52;;;;;;;8.77;1.55;;;;;;;2.42;85.80;100318.22;5015945;28;20038;-71
2021/12/02 08:44:18;;;;;;;10.88;2.00;;;;;;;2.46;86.54;100325.78;5015418;28;20383;-72
2021/12/02 08:46:44;;;;;;;11.30;1.25;;;;;;;2.43;86.69;100331.25;4997601;28;20100;-71
2021/12/02 08:49:10;;;;;;;11.68;1.30;;;;;;;2.39;88.29;100329.75;5015930;28;20526;-70
2021/12/02 08:51:35;;;;;;;9.85;1.10;;;;;;;2.43;87.59;100339.13;5015421;28;20493;-71
2021/12/02 08:54:01;;;;;;;8.90;2.03;;;;;;;2.54;86.69;100335.78;4998298;28;20069;-70
2021/12/02 08:56:26;;;;;;;4.03;0.90;;;;;;;2.64;86.84;100343.91;5015324;28;20034;-71
2021/12/02 08:58:52;;;;;;;9.25;0.93;;;;;;;2.73;86.48;100338.06;4998139;28;20398;-71
2021/12/02 09:01:18;;;;;;;7.03;0.93;;;;;;;2.87;85.65;100337.16;5014574;28;20042;-71
2021/12/02 09:03:44;;;;;;;6.35;1.13;;;;;;;3.04;83.72;100345.69;5015588;28;20064;-70
2021/12/02 09:06:11;;;;;;;4.20;0.57;;;;;;;3.18;84.76;100354.34;5015484;28;20062;-70
2021/12/02 09:08:39;;;;;;;6.07;1.02;;;;;;;3.33;83.62;100356.88;5015289;28;20038;-70
2021/12/02 09:11:05;;;;;;;3.05;0.60;;;;;;;3.49;82.50;100357.53;5015258;28;20029;-69
2021/12/02 09:13:31;;;;;;;4.50;0.82;;;;;;;3.75;80.61;100360.13;5014466;28;20070;-70
2021/12/02 09:15:57;;;;;;;2.08;0.60;;;;;;;3.98;80.88;100361.13;5014666;28;20033;-70
2021/12/02 09:18:22;;;;;;;2.60;0.80;;;;;;;4.11;78.60;100360.28;5014453;28;20339;-70
2021/12/02 09:20:48;;;;;;;4.40;0.75;;;;;;;4.08;77.95;100348.19;5015154;28;20030;-71
2021/12/02 09:23:14;;;;;;;4.90;1.17;;;;;;;3.92;78.01;100353.69;4997717;28;20126;-72
2021/12/02 09:25:40;;;;;;;11.40;1.10;;;;;;;3.68;79.99;100351.81;5014504;28;20026;-71
2021/12/02 09:28:06;;;;;;;5.75;1.42;;;;;;;3.47;80.42;100361.19;5014907;28;20040;-71
2021/12/02 09:30:31;;;;;;;4.63;1.42;;;;;;;3.22;81.47;100357.59;5014359;28;20104;-71
2021/12/02 09:32:57;;;;;;;3.88;1.20;;;;;;;3.03;82.95;100363.25;5015377;28;20394;-71
2021/12/02 09:35:23;;;;;;;4.97;1.13;;;;;;;2.90;82.87;100370.28;5014641;28;20042;-71
2021/12/02 09:37:49;;;;;;;5.00;0.73;;;;;;;2.82;84.20;100363.72;5014772;28;20029;-72
2021/12/02 09:40:18;;;;;;;4.60;0.80;;;;;;;2.82;84.22;100370.75;5013952;28;20033;-72
2021/12/02 09:42:44;;;;;;;6.25;1.10;;;;;;;2.87;83.89;100371.31;5014159;28;20030;-72
2021/12/02 09:45:10;;;;;;;3.47;0.70;;;;;;;2.94;84.03;100377.00;5014578;28;20030;-73
2021/12/02 09:47:40;;;;;;;4.55;0.80;;;;;;;3.11;83.26;100379.34;5014330;28;20044;-71
2021/12/02 09:50:20;;;;;;;5.38;0.90;;;;;;;3.28;83.60;100388.72;4997502;28;20026;-71
2021/12/02 09:52:46;;;;;;;9.75;1.05;;;;;;;3.45;83.16;100377.09;5014615;28;20462;-70
2021/12/02 09:55:24;;;;;;;4.28;0.93;;;;;;;3.67;83.46;100388.75;5014457;28;20037;-71
2021/12/02 09:57:55;;;;;;;5.13;1.20;;;;;;;4.00;82.37;100392.63;5014396;28;20121;-71
2021/12/02 10:00:25;;;;;;;4.85;1.25;;;;;;;4.36;80.42;100401.50;5014642;28;20061;-71
2021/12/02 10:03:39;;;;;;;5.88;0.98;;;;;;;4.52;78.47;100407.38;5014509;28;20132;-72
2021/12/02 10:05:43;;;;;;;7.38;1.02;;;;;;;4.48;80.10;100413.81;4985661;28;20084;-72
2021/12/02 10:08:12;;;;;;;9.10;1.00;;;;;;;4.45;80.18;100414.03;5014226;28;20037;-72
2021/12/02 10:10:52;;;;;;;7.72;1.27;;;;;;;4.40;80.70;100418.78;5013783;28;20325;-72
2021/12/02 10:16:09;;;;;;;;;;;;;;;4.30;80.34;100428.28;5014993;28;20509;-72
2021/12/02 10:18:53;;;;;;;5.90;1.35;;;;;;;4.20;80.10;100439.47;5013796;28;19917;-72
2021/12/02 10:21:25;;;;;;;8.93;1.63;;;;;;;4.14;80.58;100439.06;5014240;28;20076;-71
2021/12/02 10:23:53;;;;;;;8.30;2.10;;;;;;;4.04;80.82;100442.31;5014144;28;20042;-70
2021/12/02 10:26:19;;;;;;;9.73;1.27;;;;;;;3.96;81.12;100443.81;5013928;28;20037;-71
2021/12/02 10:28:47;;;;;;;7.20;0.98;;;;;;;3.84;83.42;100448.97;5013457;28;20430;-69
2021/12/02 10:31:19;;;;;;;6.32;1.83;;;;;;;3.66;83.63;100464.22;5013327;28;20510;-70
2021/12/02 10:33:49;;;;;;;6.43;1.50;;;;;;;3.55;83.95;100468.53;5013534;28;20034;-69
2021/12/02 10:36:31;;;;;;;3.97;1.23;;;;;;;3.40;85.23;100497.53;5013944;28;20030;-71
2021/12/02 10:39:02;;;;;;;5.47;1.02;;;;;;;3.30;87.54;100515.72;5013826;28;20036;-70
2021/12/02 10:41:30;;;;;;;6.80;1.20;;;;;;;3.17;87.93;100512.19;5013281;28;20069;-71
2021/12/02 10:44:11;;;;;;;5.72;0.90;;;;;;;2.99;89.06;100528.19;5013325;28;20026;-70
2021/12/02 10:46:42;;;;;;;5.25;0.93;;;;;;;2.77;89.55;100538.38;5013250;28;20025;-70
2021/12/02 10:49:15;;;;;;;6.45;1.17;;;;;;;2.50;90.22;100538.31;5013722;28;20076;-70
2021/12/02 10:51:46;;;;;;;4.65;0.82;;;;;;;2.20;91.62;100541.88;5012911;28;20463;-70
2021/12/02 10:54:17;;;;;;;4.18;0.75;;;;;;;2.01;93.73;100539.50;5013386;28;20037;-69
2021/12/02 10:56:54;;;;;;;;;;;;;;;1.83;95.04;100534.41;5013533;28;20500;-69
2021/12/02 10:59:25;;;;;;;3.30;0.93;;;;;;;1.70;96.01;100533.44;5013561;28;19928;-70
2021/12/02 11:01:57;;;;;;;3.72;0.90;;;;;;;1.52;96.58;100512.59;5012930;28;20026;-69
2021/12/02 11:04:24;;;;;;;3.28;0.90;;;;;;;1.46;97.32;100531.28;5013386;28;20026;-69
2021/12/02 11:06:51;;;;;;;2.38;0.77;;;;;;;1.44;97.73;100537.56;5012734;28;20518;-69
2021/12/02 11:09:23;;;;;;;9.57;0.65;;;;;;;1.47;98.63;100534.78;5013166;28;20466;-69
2021/12/02 11:12:14;;;;;;;2.83;0.73;;;;;;;1.54;99.24;100528.25;5012789;28;20045;-69
2021/12/02 11:14:50;;;;;;;1.63;0.70;;;;;;;1.63;99.81;100539.97;5012739;28;20120;-69
2021/12/02 11:17:16;;;;;;;2.97;1.92;;;;;;;1.65;99.86;100540.72;5013006;28;20542;-69
2021/12/02 11:19:46;;;;;;;2.40;1.55;;;;;;;1.70;99.65;100536.06;5012717;28;20026;-70
2021/12/02 11:22:21;;;;;;;2.83;0.60;;;;;;;1.70;99.31;100515.94;5012908;28;20081;-70
2021/12/02 11:24:48;;;;;;;2.80;0.60;;;;;;;1.71;98.13;100501.03;5012658;28;20118;-69
2021/12/02 11:27:36;;;;;;;2.35;0.63;;;;;;;1.68;97.11;100524.81;5012869;28;20044;-70
2021/12/02 11:30:04;;;;;;;1.25;0.52;;;;;;;1.67;96.01;100525.75;5012854;28;20062;-69
2021/12/02 11:32:34;;;;;;;2.42;0.90;;;;;;;1.68;96.06;100530.06;5012881;28;20053;-69
2021/12/02 11:35:06;;;;;;;3.00;0.70;;;;;;;1.65;96.44;100531.06;5012733;28;20104;-69
2021/12/02 11:37:35;;;;;;;0.88;0.47;;;;;;;1.63;95.80;100529.47;5012583;28;20037;-69
2021/12/02 11:40:28;;;;;;;2.72;0.63;;;;;;;1.56;95.66;100524.59;5012500;28;20044;-72
2021/12/02 11:42:54;;;;;;;7.15;0.82;;;;;;;1.52;95.75;100530.09;5009457;28;20041;-70
2021/12/02 11:45:22;;;;;;;1.90;0.75;;;;;;;1.48;96.47;100529.44;5012595;28;20032;-70
2021/12/02 11:47:50;;;;;;;3.35;0.80;;;;;;;1.45;97.05;100528.75;5012017;28;20026;-69
2021/12/02 11:50:17;;;;;;;1.58;0.80;;;;;;;1.46;97.10;100527.84;5012841;28;20172;-71
2021/12/02 11:52:44;;;;;;;2.47;1.10;;;;;;;1.53;97.40;100544.91;4994258;28;20034;-69
2021/12/02 11:55:25;;;;;;;2.95;0.88;;;;;;;1.71;97.67;100548.25;5012605;28;20183;-69